ENQA

Troll A Platform Heliport

Norway
METAR ENQA 220620Z AUTO 15022KT 9999NDV BKN053/// 06/04 Q1012 W04/S4
Observed Flight Rules
Apr-22 @ 06:20 UTC (34 minutes ago)
Wind Clouds
150° at 22 knots
  • Broken at 5,300' AGL
Temperatures Readings
Current 6°C / 43°F
Dewpoint 4°C / 39°F
Humidity 87%
Altimeter 29.88" Hg
Pressure 1012 hPa
Elevation 20
METAR ENQA 220620Z AUTO 15022KT 9999NDV BKN053/// 06/04 Q1012 W04/S4
Observed Flight Rules
Apr-22 @ 06:20 UTC
(34 minutes ago)
Wind
150° at 22 knots
Clouds
  • Broken at 5,300' AGL
Temperature Dewpoint
6°C / 43°F 4°C / 39°F
Humidity Altimeter Pressure
87% 29.88" Hg 1012 hPa